createdAt,value
2019-05-29T00:01:21.272Z,75.34
2019-05-29T00:05:22.703Z,75.30
2019-05-29T00:09:27.071Z,75.27
2019-05-29T00:13:31.329Z,75.26
2019-05-29T00:17:35.638Z,75.04
2019-05-29T00:21:39.959Z,74.92
2019-05-29T00:25:44.239Z,74.93
2019-05-29T00:29:48.566Z,74.74
2019-05-29T00:33:53.014Z,74.68
2019-05-29T00:37:57.367Z,74.63
2019-05-29T00:42:03.025Z,74.54
2019-05-29T00:46:07.402Z,74.41
2019-05-29T00:50:12.461Z,74.40
2019-05-29T00:54:16.791Z,74.19
2019-05-29T00:58:21.120Z,74.50
2019-05-29T01:02:25.437Z,74.52
2019-05-29T01:06:29.763Z,74.74
2019-05-29T01:10:34.087Z,74.92
2019-05-29T01:14:49.634Z,75.02
2019-05-29T01:18:44.464Z,75.04
2019-05-29T01:22:48.766Z,75.01
2019-05-29T01:26:53.023Z,75.12
2019-05-29T01:30:57.660Z,75.22
2019-05-29T01:35:02.029Z,75.52
2019-05-29T01:39:07.176Z,75.83
2019-05-29T01:43:11.625Z,75.92
2019-05-29T01:47:15.995Z,76.26
2019-05-29T01:51:21.747Z,76.45
2019-05-29T01:55:26.102Z,76.46
2019-05-29T01:59:30.434Z,76.52
2019-05-29T02:03:34.884Z,76.47
2019-05-29T02:07:39.250Z,76.62
2019-05-29T02:11:43.576Z,76.51
2019-05-29T02:15:47.854Z,76.61
2019-05-29T02:19:52.199Z,76.73
2019-05-29T02:23:56.532Z,76.60
2019-05-29T02:28:00.863Z,76.52
2019-05-29T02:32:05.214Z,76.46
2019-05-29T02:36:09.533Z,76.66
2019-05-29T02:40:14.120Z,76.43
2019-05-29T02:44:19.219Z,76.55
2019-05-29T02:48:25.060Z,76.62
2019-05-29T02:52:30.730Z,76.54
2019-05-29T02:56:35.228Z,76.62
2019-05-29T03:00:54.381Z,76.80
2019-05-29T03:04:58.715Z,76.73
2019-05-29T03:09:05.021Z,76.68
2019-05-29T03:13:09.300Z,76.71
2019-05-29T03:17:13.647Z,76.64
2019-05-29T03:21:18.074Z,76.66
2019-05-29T03:25:22.422Z,76.47
2019-05-29T03:29:28.164Z,76.28
2019-05-29T03:33:41.035Z,76.19
2019-05-29T03:37:39.048Z,76.08
2019-05-29T03:41:43.319Z,75.99
2019-05-29T03:45:47.720Z,76.07
2019-05-29T03:49:52.053Z,76.03
2019-05-29T03:53:56.420Z,75.88
2019-05-29T03:58:00.782Z,75.97
2019-05-29T04:02:05.120Z,75.85
2019-05-29T04:06:09.553Z,75.82
2019-05-29T04:10:14.115Z,75.78
2019-05-29T04:14:18.439Z,75.90
2019-05-29T04:18:25.158Z,75.99
2019-05-29T04:22:36.938Z,76.23
2019-05-29T04:26:41.625Z,76.29
2019-05-29T04:30:45.968Z,76.54
2019-05-29T04:34:50.468Z,77.43
2019-05-29T04:38:54.834Z,77.07
2019-05-29T04:42:59.135Z,77.08
2019-05-29T04:47:10.948Z,77.00
2019-05-29T04:51:09.941Z,77.49
2019-05-29T04:55:14.343Z,77.75
2019-05-29T04:59:18.643Z,78.65
2019-05-29T05:03:23.016Z,79.68
2019-05-29T05:07:27.317Z,79.42
2019-05-29T05:11:31.600Z,79.64
2019-05-29T05:15:36.417Z,79.71
2019-05-29T05:19:40.719Z,79.52
2019-05-29T05:23:45.284Z,79.99
2019-05-29T05:27:49.570Z,80.04
2019-05-29T05:31:54.997Z,80.43
2019-05-29T05:35:59.302Z,80.85
2019-05-29T05:40:03.649Z,80.39
2019-05-29T05:44:07.931Z,80.93
2019-05-29T05:48:12.283Z,80.63
2019-05-29T06:13:02.873Z,79.85
2019-05-29T06:17:07.314Z,80.44
2019-05-29T06:21:11.721Z,80.96
2019-05-29T06:25:16.742Z,81.14
2019-05-29T06:29:21.058Z,81.51
2019-05-29T06:33:25.424Z,81.92
2019-05-29T06:37:30.071Z,81.72
2019-05-29T06:41:35.584Z,81.61
2019-05-29T06:45:40.200Z,81.70
2019-05-29T06:49:46.238Z,81.83
2019-05-29T06:53:50.687Z,81.66
2019-05-29T06:57:56.490Z,81.56
2019-05-29T07:02:00.852Z,81.52
2019-05-29T07:06:05.199Z,81.59
2019-05-29T07:10:09.503Z,81.54
2019-05-29T07:14:13.867Z,81.60
2019-05-29T07:18:18.178Z,81.48
2019-05-29T07:22:22.513Z,81.41
2019-05-29T07:26:26.894Z,81.29
2019-05-29T07:30:31.904Z,81.59
2019-05-29T07:34:52.613Z,81.63
2019-05-29T07:38:46.108Z,81.71
2019-05-29T07:42:55.853Z,81.63
2019-05-29T07:46:54.767Z,81.84
2019-05-29T07:51:07.080Z,82.00
2019-05-29T07:55:05.573Z,82.10
2019-05-29T07:59:09.919Z,82.19
2019-05-29T08:03:14.294Z,82.09
2019-05-29T08:07:18.647Z,82.42
2019-05-29T08:11:23.045Z,82.46
2019-05-29T08:15:27.350Z,82.21
2019-05-29T08:19:32.060Z,82.43
2019-05-29T08:23:36.373Z,82.48
2019-05-29T08:27:40.758Z,82.88
2019-05-29T08:31:45.108Z,82.67
2019-05-29T08:35:57.919Z,82.76
2019-05-29T08:39:55.872Z,82.87
2019-05-29T08:44:00.460Z,82.67
2019-05-29T08:48:04.847Z,82.55
2019-05-29T08:52:12.325Z,82.66
2019-05-29T08:56:15.486Z,82.73
2019-05-29T09:00:20.134Z,82.82
2019-05-29T09:04:24.438Z,82.77
2019-05-29T09:08:28.864Z,82.99
2019-05-29T09:12:33.125Z,82.84
2019-05-29T09:16:37.530Z,82.96
2019-05-29T09:21:00.694Z,82.81
2019-05-29T09:24:47.945Z,82.56
2019-05-29T09:28:52.286Z,82.61
2019-05-29T09:32:56.686Z,82.62
2019-05-29T09:37:00.962Z,82.99
2019-05-29T09:41:05.320Z,82.72
2019-05-29T09:45:09.696Z,82.52
2019-05-29T09:49:14.120Z,82.60
2019-05-29T09:53:18.647Z,82.57
2019-05-29T09:57:22.986Z,82.41
2019-05-29T10:01:27.495Z,82.51
2019-05-29T10:05:32.008Z,82.45
2019-05-29T10:09:36.463Z,82.02
2019-05-29T10:13:41.150Z,82.33
2019-05-29T10:17:45.519Z,82.47
2019-05-29T10:21:49.951Z,81.81
2019-05-29T10:25:56.411Z,81.51
2019-05-29T10:30:00.880Z,81.22
2019-05-29T10:34:05.195Z,81.16
2019-05-29T10:38:09.505Z,81.67
2019-05-29T10:42:13.912Z,81.22
2019-05-29T10:46:18.210Z,81.29
2019-05-29T10:50:22.580Z,80.54
2019-05-29T10:54:26.902Z,81.20
2019-05-29T10:58:47.643Z,81.49
2019-05-29T11:02:37.352Z,81.10
2019-05-29T11:06:41.756Z,80.76
2019-05-29T11:10:46.089Z,81.11
2019-05-29T11:14:50.789Z,81.29
2019-05-29T11:18:55.397Z,81.43
2019-05-29T11:22:59.680Z,81.17
2019-05-29T11:27:04.066Z,80.87
2019-05-29T11:31:08.426Z,80.66
2019-05-29T11:35:12.856Z,80.64
2019-05-29T11:39:17.191Z,80.14
2019-05-29T11:43:21.608Z,80.58
2019-05-29T11:47:25.904Z,80.75
2019-05-29T11:51:30.206Z,80.72
2019-05-29T11:55:34.530Z,80.61
2019-05-29T11:59:38.914Z,80.97
2019-05-29T12:04:09.089Z,80.65
2019-05-29T12:07:49.284Z,80.47
2019-05-29T12:11:54.036Z,80.83
2019-05-29T12:15:59.672Z,80.86
2019-05-29T12:20:23.998Z,81.00
2019-05-29T12:24:10.401Z,80.82
2019-05-29T12:28:14.862Z,80.55
2019-05-29T12:32:19.287Z,80.44
2019-05-29T12:36:23.659Z,80.41
2019-05-29T12:40:28.052Z,80.53
2019-05-29T12:44:32.359Z,80.57
2019-05-29T12:48:36.646Z,79.88
2019-05-29T12:52:41.161Z,79.63
2019-05-29T12:56:45.486Z,79.16
2019-05-29T13:00:50.002Z,79.01
2019-05-29T13:05:18.349Z,77.71
2019-05-29T13:09:00.587Z,77.56
2019-05-29T13:13:10.650Z,77.90
2019-05-29T13:17:10.864Z,77.95
2019-05-29T13:21:15.218Z,78.39
2019-05-29T13:25:19.554Z,78.56
2019-05-29T13:29:23.860Z,78.45
2019-05-29T13:33:28.202Z,77.51
2019-05-29T13:37:33.538Z,77.35
2019-05-29T13:41:37.871Z,76.42
2019-05-29T13:45:42.190Z,76.17
2019-05-29T13:49:46.579Z,75.91
2019-05-29T13:54:02.799Z,74.22
2019-05-29T13:57:57.586Z,74.26
2019-05-29T14:02:04.736Z,71.98
2019-05-29T14:06:09.592Z,70.73
2019-05-29T14:10:14.189Z,70.77
2019-05-29T14:14:18.617Z,70.37
2019-05-29T14:18:22.970Z,70.00
2019-05-29T14:22:27.299Z,69.52
2019-05-29T14:26:31.722Z,69.87
2019-05-29T14:30:36.111Z,69.60
2019-05-29T14:34:40.396Z,69.70
2019-05-29T14:38:44.810Z,69.31
2019-05-29T14:42:49.233Z,69.89
2019-05-29T14:46:53.768Z,70.03
2019-05-29T14:50:58.389Z,69.83
2019-05-29T14:55:03.033Z,70.19
2019-05-29T14:59:07.527Z,69.89
2019-05-29T15:03:13.647Z,70.11
2019-05-29T15:07:18.309Z,70.10
2019-05-29T15:11:22.711Z,69.30
2019-05-29T15:15:27.174Z,70.03
2019-05-29T15:19:43.189Z,69.62
2019-05-29T15:23:47.529Z,69.20
2019-05-29T15:27:51.911Z,68.33
2019-05-29T15:31:56.314Z,68.05
2019-05-29T15:36:00.686Z,67.82
2019-05-29T15:40:06.597Z,67.22
2019-05-29T15:44:11.015Z,66.76
2019-05-29T15:48:15.381Z,67.44
2019-05-29T15:52:20.009Z,66.24
2019-05-29T15:56:28.011Z,66.94
2019-05-29T16:00:30.467Z,66.93
2019-05-29T16:04:34.955Z,67.61
2019-05-29T16:08:39.313Z,66.27
2019-05-29T16:12:43.631Z,66.75
2019-05-29T16:16:47.968Z,66.92
2019-05-29T16:20:52.358Z,66.76
2019-05-29T16:24:56.684Z,66.98
2019-05-29T16:29:01.026Z,66.68
2019-05-29T16:33:05.736Z,67.18
2019-05-29T16:37:11.231Z,66.12
2019-05-29T16:41:15.842Z,67.13
2019-05-29T16:45:22.408Z,67.12
2019-05-29T16:49:26.805Z,66.97
2019-05-29T16:53:35.025Z,66.48
2019-05-29T16:57:46.508Z,67.32
2019-05-29T17:01:50.806Z,66.93
2019-05-29T17:05:55.259Z,67.06
2019-05-29T17:10:00.144Z,66.78
2019-05-29T17:14:04.613Z,66.77
2019-05-29T17:18:09.085Z,66.85
2019-05-29T17:22:14.516Z,67.15
2019-05-29T17:26:18.987Z,67.35
2019-05-29T17:30:30.344Z,67.33
2019-05-29T17:34:34.690Z,67.39
2019-05-29T17:38:39.103Z,67.00
2019-05-29T17:42:43.881Z,67.24
2019-05-29T17:46:51.232Z,66.34
2019-05-29T17:50:55.618Z,65.15
2019-05-29T17:55:00.049Z,66.41
2019-05-29T17:59:04.995Z,65.73
2019-05-29T18:03:09.432Z,65.00
2019-05-29T18:07:13.698Z,65.52
2019-05-29T18:11:18.839Z,64.44
2019-05-29T18:15:23.767Z,64.89
2019-05-29T18:19:28.372Z,64.85
2019-05-29T18:23:32.820Z,64.63
2019-05-29T18:27:37.349Z,64.58
2019-05-29T18:31:41.642Z,64.03
2019-05-29T18:35:46.100Z,64.04
2019-05-29T18:39:50.523Z,64.03
2019-05-29T18:43:54.861Z,64.08
2019-05-29T18:47:59.265Z,64.00
2019-05-29T18:52:03.594Z,64.30
2019-05-29T18:56:07.969Z,63.73
2019-05-29T19:00:15.345Z,64.39
2019-05-29T19:04:19.716Z,64.19
2019-05-29T19:08:24.281Z,64.23
2019-05-29T19:12:30.367Z,63.79
2019-05-29T19:16:34.702Z,63.99
2019-05-29T19:20:39.070Z,63.97
2019-05-29T19:24:43.468Z,63.86
2019-05-29T19:28:49.022Z,63.59
2019-05-29T19:32:53.805Z,63.93
2019-05-29T19:36:58.099Z,63.74
2019-05-29T19:41:02.478Z,63.14
2019-05-29T19:45:07.848Z,63.84
2019-05-29T19:49:12.231Z,63.92
2019-05-29T19:53:16.675Z,63.14
2019-05-29T19:57:21.030Z,64.03
2019-05-29T20:01:31.667Z,63.81
2019-05-29T20:05:32.738Z,64.18
2019-05-29T20:09:37.653Z,64.27
2019-05-29T20:13:42.529Z,64.22
2019-05-29T20:17:46.895Z,64.29
2019-05-29T20:21:51.255Z,64.59
2019-05-29T20:25:55.574Z,64.25
2019-05-29T20:29:59.903Z,64.27
2019-05-29T20:34:04.322Z,64.44
2019-05-29T20:38:08.765Z,64.56
2019-05-29T20:42:13.125Z,64.64
2019-05-29T20:46:17.455Z,64.72
2019-05-29T20:50:21.921Z,64.47
2019-05-29T20:54:26.251Z,64.09
2019-05-29T20:58:31.620Z,64.52
2019-05-29T21:02:36.204Z,64.02
2019-05-29T21:06:40.759Z,64.55
2019-05-29T21:10:45.346Z,63.70
2019-05-29T21:14:49.808Z,63.90
2019-05-29T21:18:54.305Z,64.14
2019-05-29T21:22:59.843Z,64.04
2019-05-29T21:27:04.143Z,64.29
2019-05-29T21:31:08.475Z,64.24
2019-05-29T21:35:12.909Z,64.30
2019-05-29T21:39:17.210Z,64.47
2019-05-29T21:43:21.549Z,64.58
2019-05-29T21:47:25.921Z,64.91
2019-05-29T21:51:30.321Z,65.16
2019-05-29T21:55:34.661Z,65.24
2019-05-29T21:59:39.670Z,65.35
2019-05-29T22:03:44.468Z,65.39
2019-05-29T22:07:49.023Z,65.37
2019-05-29T22:11:54.304Z,65.52
2019-05-29T22:15:58.890Z,65.82
2019-05-29T22:20:03.325Z,65.98
2019-05-29T22:24:07.671Z,65.88
2019-05-29T22:28:12.053Z,66.14
2019-05-29T22:32:16.432Z,66.39
2019-05-29T22:36:20.771Z,66.62
2019-05-29T22:40:25.610Z,66.87
2019-05-29T22:44:29.976Z,67.26
2019-05-29T22:48:34.365Z,67.59
2019-05-29T22:52:38.776Z,67.96
2019-05-29T22:56:43.102Z,68.32
2019-05-29T23:00:47.421Z,68.47
2019-05-29T23:04:52.149Z,68.74
2019-05-29T23:08:56.627Z,69.11
2019-05-29T23:13:03.950Z,69.30
2019-05-29T23:17:06.976Z,69.47
2019-05-29T23:21:11.347Z,69.76
2019-05-29T23:25:15.702Z,69.82
2019-05-29T23:29:20.143Z,70.25
2019-05-29T23:33:24.492Z,69.99
2019-05-29T23:37:28.849Z,69.96
2019-05-29T23:41:33.170Z,69.89
2019-05-29T23:45:37.503Z,69.63
2019-05-29T23:49:41.989Z,69.52
2019-05-29T23:53:46.470Z,69.36
2019-05-29T23:57:50.805Z,69.36
